Time;durP1;ratioP1;P1;durP2;ratioP2;P2;SDS_P1;SDS_P2;PMS_P1;PMS_P2;Temp;Humidity;BMP_temperature;BMP_pressure;BME280_temperature;BME280_humidity;BME280_pressure;Samples;Min_cycle;Max_cycle;Signal;HPM_P1;HPM_P2
2021/12/24 00:01:58;;;;;;;8.93;4.00;;;8.20;99.90;;;;;;4950658;29;20464;-68
2021/12/24 00:04:24;;;;;;;9.25;3.80;;;8.20;99.90;;;;;;4951290;29;20046;-68
2021/12/24 00:06:52;;;;;;;8.98;3.75;;;8.20;99.90;;;;;;4939128;29;20831;-69
2021/12/24 00:09:24;;;;;;;7.60;3.65;;;8.20;99.90;;;;;;4951056;29;20035;-68
2021/12/24 00:11:54;;;;;;;9.68;3.83;;;8.10;99.90;;;;;;4950815;29;20031;-68
2021/12/24 00:14:20;;;;;;;9.85;4.13;;;8.20;99.90;;;;;;4933299;29;20086;-69
2021/12/24 00:16:51;;;;;;;10.90;4.18;;;8.10;99.90;;;;;;4950211;29;20419;-68
2021/12/24 00:19:24;;;;;;;9.52;4.10;;;8.10;99.90;;;;;;4951515;29;20055;-68
2021/12/24 00:35:35;;;;;;;9.40;3.55;;;8.30;99.90;;;;;;4949793;29;20087;-69
2021/12/24 00:38:06;;;;;;;12.10;4.05;;;8.40;99.90;;;;;;4951345;29;20027;-68
2021/12/24 00:40:44;;;;;;;12.00;3.70;;;8.30;99.90;;;;;;4951184;28;20036;-69
2021/12/24 00:43:11;;;;;;;11.13;3.90;;;8.40;99.90;;;;;;4955089;29;20039;-69
2021/12/24 00:45:40;;;;;;;9.82;3.70;;;8.40;99.90;;;;;;4953310;29;20082;-69
2021/12/24 00:48:07;;;;;;;8.25;3.78;;;8.40;99.90;;;;;;4955221;29;20023;-68
2021/12/24 00:50:49;;;;;;;8.23;3.50;;;8.50;99.90;;;;;;4953470;29;20027;-69
2021/12/24 00:56:02;;;;;;;9.32;3.75;;;8.40;99.90;;;;;;4953862;29;20038;-68
2021/12/24 00:58:27;;;;;;;11.18;4.60;;;8.30;99.90;;;;;;4954892;29;20380;-69
2021/12/24 01:00:53;;;;;;;10.73;4.50;;;8.20;99.90;;;;;;4952851;29;20023;-68
2021/12/24 01:03:19;;;;;;;10.55;4.22;;;8.30;99.90;;;;;;4954534;29;20097;-68
2021/12/24 01:05:45;;;;;;;8.25;3.70;;;8.40;99.90;;;;;;4953069;29;20043;-68
2021/12/24 01:08:13;;;;;;;7.18;3.30;;;8.40;99.90;;;;;;4952881;29;20031;-68
2021/12/24 01:11:01;;;;;;;8.73;4.05;;;8.40;99.90;;;;;;4953213;29;20443;-69
2021/12/24 01:13:28;;;;;;;9.27;3.80;;;8.30;99.90;;;;;;4954235;29;20039;-69
2021/12/24 01:16:03;;;;;;;8.55;3.90;;;8.30;99.90;;;;;;4951397;29;20046;-68
2021/12/24 01:21:21;;;;;;;8.57;3.97;;;8.30;99.90;;;;;;4953301;29;20082;-69
2021/12/24 01:23:51;;;;;;;8.95;4.00;;;8.20;99.90;;;;;;4951638;29;20051;-68
2021/12/24 01:29:41;;;;;;;8.85;3.80;;;8.10;99.90;;;;;;4954043;29;20071;-68
2021/12/24 01:37:58;;;;;;;7.35;3.53;;;8.10;99.90;;;;;;4954146;29;20038;-68
2021/12/24 01:42:50;;;;;;;8.50;3.80;;;8.00;99.90;;;;;;4952467;29;20403;-68
2021/12/24 01:45:28;;;;;;;8.93;4.13;;;8.00;99.90;;;;;;4953475;29;20035;-69
2021/12/24 01:47:58;;;;;;;10.38;3.75;;;7.90;99.90;;;;;;4952918;29;20023;-68
2021/12/24 01:50:27;;;;;;;10.73;3.40;;;7.90;99.90;;;;;;4953442;29;20452;-69
2021/12/24 01:52:55;;;;;;;8.02;3.70;;;7.90;99.90;;;;;;4951658;28;20071;-69
2021/12/24 01:55:21;;;;;;;8.43;3.47;;;7.90;99.90;;;;;;4953981;29;20081;-69
2021/12/24 01:57:47;;;;;;;9.50;4.00;;;7.90;99.90;;;;;;4952665;29;20035;-68
2021/12/24 02:00:26;;;;;;;8.95;4.15;;;7.90;99.90;;;;;;4952300;29;20030;-68
2021/12/24 02:02:52;;;;;;;14.57;3.83;;;8.00;99.90;;;;;;4952955;29;20081;-68
2021/12/24 02:05:19;;;;;;;8.05;3.28;;;7.90;99.90;;;;;;4953367;29;20393;-68
2021/12/24 02:07:45;;;;;;;10.75;3.67;;;8.00;99.90;;;;;;4953202;29;20058;-68
2021/12/24 02:10:14;;;;;;;8.27;3.88;;;7.90;99.90;;;;;;4952678;29;20089;-68
2021/12/24 02:12:40;;;;;;;7.25;3.28;;;8.00;99.90;;;;;;4948863;29;20074;-69
2021/12/24 02:15:14;;;;;;;9.70;3.28;;;8.10;99.90;;;;;;4953227;29;20177;-68
2021/12/24 02:30:53;;;;;;;8.45;2.80;;;8.40;99.90;;;;;;4952400;29;20482;-68
2021/12/24 02:33:20;;;;;;;6.55;2.90;;;8.50;99.90;;;;;;4951496;29;20563;-69
2021/12/24 02:35:47;;;;;;;8.60;3.08;;;8.50;99.90;;;;;;4951314;29;20384;-69
2021/12/24 02:38:12;;;;;;;6.72;3.20;;;8.50;99.90;;;;;;4952239;29;20027;-68
2021/12/24 02:40:38;;;;;;;5.95;2.53;;;8.50;99.90;;;;;;4952660;29;20090;-70
2021/12/24 02:43:09;;;;;;;10.05;3.15;;;8.70;99.90;;;;;;4951653;28;20070;-69
2021/12/24 02:45:35;;;;;;;5.63;2.45;;;8.80;99.90;;;;;;4953244;29;20070;-69
2021/12/24 02:56:01;;;;;;;5.72;2.40;;;9.10;99.90;;;;;;4950504;29;20668;-69
2021/12/24 02:58:27;;;;;;;4.88;2.47;;;9.10;99.90;;;;;;4952129;29;20293;-69
2021/12/24 03:00:52;;;;;;;7.65;2.50;;;9.00;99.90;;;;;;4951461;29;20488;-68
2021/12/24 03:03:18;;;;;;;5.57;2.42;;;9.10;99.90;;;;;;4951959;28;20035;-68
2021/12/24 03:05:44;;;;;;;5.47;2.30;;;9.10;99.90;;;;;;4951138;29;20162;-69
2021/12/24 03:08:09;;;;;;;7.43;2.72;;;9.10;99.90;;;;;;4952548;29;20031;-69
2021/12/24 03:10:36;;;;;;;6.55;2.42;;;9.20;99.90;;;;;;4951657;29;20547;-69
2021/12/24 03:13:03;;;;;;;9.23;2.85;;;9.20;99.90;;;;;;4934554;29;21028;-69
2021/12/24 03:15:29;;;;;;;6.85;2.35;;;9.20;99.90;;;;;;4952380;29;20031;-68
2021/12/24 03:17:58;;;;;;;5.72;2.55;;;9.20;99.90;;;;;;4951182;29;20035;-68
2021/12/24 03:20:24;;;;;;;6.28;2.65;;;9.20;99.90;;;;;;4952132;28;20020;-68
2021/12/24 03:25:27;;;;;;;4.65;2.42;;;9.20;99.90;;;;;;4952080;29;20031;-68
2021/12/24 03:27:53;;;;;;;5.28;2.25;;;9.30;99.90;;;;;;4949050;29;20170;-68
2021/12/24 03:30:19;;;;;;;4.85;2.30;;;9.30;99.90;;;;;;4952409;29;20035;-69
2021/12/24 03:32:44;;;;;;;5.28;2.53;;;9.20;99.90;;;;;;4951074;29;20042;-69
2021/12/24 03:35:10;;;;;;;5.95;2.45;;;9.10;99.90;;;;;;4950124;29;20032;-69
2021/12/24 03:37:36;;;;;;;8.00;2.60;;;9.00;99.90;;;;;;4951821;29;20495;-69
2021/12/24 03:40:04;;;;;;;8.65;2.47;;;9.00;99.90;;;;;;4951308;29;20121;-69
2021/12/24 03:42:30;;;;;;;5.38;2.40;;;9.10;99.90;;;;;;4950592;29;20035;-69
2021/12/24 03:45:09;;;;;;;5.15;2.33;;;9.10;99.90;;;;;;4950786;29;20054;-68
2021/12/24 03:47:39;;;;;;;7.30;2.20;;;9.10;99.90;;;;;;4950964;29;20042;-68
2021/12/24 03:50:09;;;;;;;6.20;2.17;;;9.20;99.90;;;;;;4951171;29;20027;-68
2021/12/24 03:55:02;;;;;;;6.13;2.05;;;9.10;99.90;;;;;;4950639;29;20643;-68
2021/12/24 03:57:40;;;;;;;6.40;2.22;;;9.10;99.90;;;;;;4951584;29;20039;-68
2021/12/24 04:00:17;;;;;;;4.85;2.17;;;9.10;99.90;;;;;;4949969;28;20392;-69
2021/12/24 04:02:44;;;;;;;5.72;2.40;;;9.00;99.90;;;;;;4937924;29;20051;-69
2021/12/24 04:05:10;;;;;;;5.95;2.42;;;8.90;99.90;;;;;;4951641;29;20067;-68
2021/12/24 04:07:36;;;;;;;7.97;2.50;;;9.00;99.90;;;;;;4951356;29;20156;-68
2021/12/24 04:10:17;;;;;;;4.57;2.13;;;8.90;99.90;;;;;;4950550;29;20108;-68
2021/12/24 04:12:43;;;;;;;5.72;2.35;;;8.80;99.90;;;;;;4948556;29;20086;-69
2021/12/24 04:15:09;;;;;;;6.47;2.30;;;8.80;99.90;;;;;;4948565;28;20728;-69
2021/12/24 04:17:38;;;;;;;5.05;2.15;;;8.70;99.90;;;;;;4934758;29;20094;-68
2021/12/24 04:25:29;;;;;;;5.55;2.33;;;8.70;99.90;;;;;;4951456;29;20136;-68
2021/12/24 04:27:58;;;;;;;9.70;2.40;;;8.70;99.90;;;;;;4949984;29;20042;-68
2021/12/24 04:30:28;;;;;;;5.28;2.58;;;8.70;99.90;;;;;;4949030;29;20027;-68
2021/12/24 04:33:01;;;;;;;5.05;2.20;;;8.70;99.90;;;;;;4948436;29;20046;-69
2021/12/24 04:51:44;;;;;;;8.75;2.25;;;8.70;99.90;;;;;;4945143;29;20503;-69
2021/12/24 05:05:03;;;;;;;6.32;2.03;;;8.70;99.90;;;;;;4949124;29;20037;-69
2021/12/24 05:10:03;;;;;;;5.18;2.20;;;8.70;99.90;;;;;;4949499;28;20110;-68
2021/12/24 05:12:33;;;;;;;4.38;2.10;;;8.80;99.90;;;;;;4950762;28;20043;-69
2021/12/24 05:15:04;;;;;;;3.45;1.67;;;8.80;99.90;;;;;;4937098;29;20031;-68
2021/12/24 05:22:58;;;;;;;3.88;2.05;;;8.80;99.90;;;;;;4950244;28;20058;-68
2021/12/24 05:25:24;;;;;;;7.20;2.35;;;8.80;99.90;;;;;;4949999;29;20039;-68
2021/12/24 05:27:51;;;;;;;4.95;2.08;;;8.70;99.90;;;;;;4949986;28;20439;-69
2021/12/24 05:30:17;;;;;;;4.68;2.20;;;8.80;99.90;;;;;;4952815;29;20031;-68
2021/12/24 05:32:43;;;;;;;4.85;2.35;;;8.80;99.90;;;;;;4935716;29;20388;-70
2021/12/24 05:35:09;;;;;;;4.90;2.13;;;8.70;99.90;;;;;;4951426;29;20026;-72
2021/12/24 05:37:35;;;;;;;7.43;2.78;;;8.70;99.90;;;;;;4951842;29;20042;-71
2021/12/24 05:40:00;;;;;;;8.38;2.45;;;8.70;99.90;;;;;;4942663;29;20121;-70
2021/12/24 05:42:31;;;;;;;7.57;2.55;;;8.70;99.90;;;;;;4953824;29;20054;-70
2021/12/24 05:45:03;;;;;;;8.93;3.25;;;8.70;99.90;;;;;;4953013;29;20468;-70
2021/12/24 05:47:28;;;;;;;7.90;2.38;;;8.70;99.90;;;;;;4952496;29;20606;-70
2021/12/24 05:49:54;;;;;;;4.72;2.45;;;8.60;99.90;;;;;;4935840;29;20035;-70
2021/12/24 05:52:20;;;;;;;8.55;2.60;;;8.70;99.90;;;;;;4953416;29;20039;-70
2021/12/24 05:54:47;;;;;;;11.68;2.67;;;8.70;99.90;;;;;;4953978;29;20035;-70
2021/12/24 05:57:13;;;;;;;8.55;2.40;;;8.70;99.90;;;;;;4952401;29;20113;-70
2021/12/24 05:59:39;;;;;;;6.00;2.35;;;8.70;99.90;;;;;;4953626;29;20035;-70
2021/12/24 06:02:05;;;;;;;4.53;2.20;;;8.70;99.90;;;;;;4953048;29;20201;-70
2021/12/24 06:04:30;;;;;;;5.43;2.50;;;8.70;99.90;;;;;;4935615;29;20065;-71
2021/12/24 06:06:56;;;;;;;7.22;2.95;;;8.70;99.90;;;;;;4952977;29;20035;-70
2021/12/24 06:09:22;;;;;;;8.57;2.85;;;8.60;99.90;;;;;;4953528;29;20030;-70
2021/12/24 06:11:48;;;;;;;5.00;2.40;;;8.60;99.90;;;;;;4953790;29;20038;-70
2021/12/24 06:14:14;;;;;;;5.22;2.20;;;8.60;99.90;;;;;;4932145;29;20031;-70
2021/12/24 06:16:59;;;;;;;5.00;2.47;;;8.60;99.90;;;;;;4934420;29;20035;-70
2021/12/24 06:19:26;;;;;;;7.32;2.28;;;8.50;99.90;;;;;;4951459;29;20031;-70
2021/12/24 06:21:52;;;;;;;4.70;2.50;;;8.50;99.90;;;;;;4951756;29;20059;-70
2021/12/24 06:24:19;;;;;;;8.02;2.58;;;8.50;99.90;;;;;;4953041;29;20046;-70
2021/12/24 06:26:45;;;;;;;4.78;2.25;;;8.40;99.90;;;;;;4953308;29;20035;-70
2021/12/24 06:29:11;;;;;;;11.98;2.80;;;8.40;99.90;;;;;;4967157;28;20027;-70
2021/12/24 06:31:37;;;;;;;7.05;2.67;;;8.40;99.90;;;;;;4953060;29;20039;-70
2021/12/24 06:34:03;;;;;;;6.07;2.83;;;8.40;99.90;;;;;;4952025;29;20027;-70
2021/12/24 06:36:34;;;;;;;6.72;2.63;;;8.40;99.90;;;;;;4952965;29;20067;-70
2021/12/24 06:38:59;;;;;;;7.22;2.75;;;8.40;99.90;;;;;;4951969;28;20027;-70
2021/12/24 06:41:25;;;;;;;8.30;2.63;;;8.40;99.90;;;;;;4953189;29;20031;-70
2021/12/24 06:43:51;;;;;;;8.95;2.83;;;8.40;99.90;;;;;;4952793;29;20380;-70
2021/12/24 06:46:17;;;;;;;5.70;2.92;;;8.40;99.90;;;;;;4952493;29;20043;-70
2021/12/24 06:48:43;;;;;;;6.82;2.67;;;8.50;99.90;;;;;;4952947;28;20031;-71
2021/12/24 06:51:09;;;;;;;6.43;2.47;;;8.50;99.90;;;;;;4951400;29;20148;-70
2021/12/24 06:53:35;;;;;;;8.60;3.05;;;8.40;99.90;;;;;;4952776;29;20047;-71
2021/12/24 06:56:00;;;;;;;5.85;2.78;;;8.40;99.90;;;;;;4966468;28;20059;-70
2021/12/24 06:58:26;;;;;;;7.20;2.67;;;8.40;99.90;;;;;;4952644;29;20069;-70
2021/12/24 07:00:52;;;;;;;7.45;2.92;;;8.40;99.90;;;;;;4951863;29;20031;-70
2021/12/24 07:03:18;;;;;;;5.38;2.75;;;8.30;99.90;;;;;;4951981;29;20400;-70
2021/12/24 07:05:44;;;;;;;8.18;2.70;;;8.30;99.90;;;;;;4952714;29;20043;-70
2021/12/24 07:08:09;;;;;;;6.43;2.70;;;8.30;99.90;;;;;;4951405;29;20071;-70
2021/12/24 07:10:35;;;;;;;6.70;2.80;;;8.30;99.90;;;;;;4952676;29;20039;-70
2021/12/24 07:13:01;;;;;;;6.85;2.90;;;8.30;99.90;;;;;;4951649;29;20071;-70
2021/12/24 07:15:26;;;;;;;6.05;2.60;;;8.30;99.90;;;;;;4952196;28;20491;-70
2021/12/24 07:17:52;;;;;;;5.30;2.55;;;8.20;99.90;;;;;;4951796;29;20031;-71
2021/12/24 07:20:18;;;;;;;7.07;3.35;;;8.20;99.90;;;;;;4951667;29;20073;-70
2021/12/24 07:22:44;;;;;;;8.75;3.05;;;8.30;99.90;;;;;;4952062;29;20487;-70
2021/12/24 07:25:10;;;;;;;6.45;3.10;;;8.20;99.90;;;;;;4950047;29;20035;-70
2021/12/24 07:27:36;;;;;;;8.10;3.30;;;8.20;99.90;;;;;;4952524;29;20055;-70
2021/12/24 07:30:05;;;;;;;6.80;2.80;;;8.30;99.90;;;;;;4951292;29;20031;-70
2021/12/24 07:32:31;;;;;;;7.28;3.17;;;8.30;99.90;;;;;;4950259;29;20042;-70
2021/12/24 07:34:56;;;;;;;12.40;3.38;;;8.20;99.90;;;;;;4950865;29;20035;-70
2021/12/24 07:37:22;;;;;;;6.15;3.10;;;8.30;99.90;;;;;;4950551;29;20455;-70
2021/12/24 07:39:48;;;;;;;10.02;2.90;;;8.20;99.90;;;;;;4951465;29;20059;-70
2021/12/24 07:42:14;;;;;;;6.18;2.90;;;8.20;99.90;;;;;;4951030;29;20089;-70
2021/12/24 07:44:39;;;;;;;5.35;2.70;;;8.30;99.90;;;;;;4951771;29;20147;-70
2021/12/24 07:47:14;;;;;;;7.53;2.65;;;8.30;99.90;;;;;;4951164;28;20038;-70
2021/12/24 07:49:42;;;;;;;7.30;2.50;;;8.20;99.90;;;;;;4966236;28;20050;-70
2021/12/24 07:52:08;;;;;;;6.55;2.90;;;8.30;99.90;;;;;;4950456;29;20476;-70
2021/12/24 07:54:41;;;;;;;8.20;2.67;;;8.30;99.90;;;;;;4949385;29;20082;-71
2021/12/24 07:57:09;;;;;;;7.80;3.22;;;8.30;99.90;;;;;;4946277;29;20032;-70
2021/12/24 07:59:37;;;;;;;7.68;2.80;;;8.20;99.90;;;;;;4951234;29;20520;-71
2021/12/24 08:02:06;;;;;;;5.53;2.80;;;8.30;99.90;;;;;;4962354;28;20023;-71
2021/12/24 08:04:32;;;;;;;6.93;3.03;;;8.30;99.90;;;;;;4945837;29;20035;-70
2021/12/24 08:07:01;;;;;;;7.80;3.17;;;8.30;99.90;;;;;;4951197;28;20027;-70
2021/12/24 08:09:27;;;;;;;7.07;3.00;;;8.30;99.90;;;;;;4951351;28;20031;-70
2021/12/24 08:11:52;;;;;;;6.43;3.00;;;8.30;99.90;;;;;;4950971;29;20035;-71
2021/12/24 08:14:18;;;;;;;6.85;2.88;;;8.30;99.90;;;;;;4949829;28;20031;-70
2021/12/24 08:16:44;;;;;;;8.13;3.15;;;8.30;99.90;;;;;;4950739;29;20032;-70
2021/12/24 08:19:10;;;;;;;7.20;2.97;;;8.20;99.90;;;;;;4941820;29;20038;-70
2021/12/24 08:21:36;;;;;;;8.10;3.10;;;8.20;99.90;;;;;;4948836;29;20122;-70
2021/12/24 08:24:02;;;;;;;6.40;2.92;;;8.30;99.90;;;;;;4948792;29;20094;-70
2021/12/24 08:26:29;;;;;;;7.55;3.25;;;8.30;99.90;;;;;;4950778;29;20027;-71
2021/12/24 08:28:55;;;;;;;8.18;3.17;;;8.30;99.90;;;;;;4951336;29;20110;-70
2021/12/24 08:31:20;;;;;;;9.70;3.10;;;8.30;99.90;;;;;;4950702;29;20103;-71
2021/12/24 08:33:46;;;;;;;9.75;3.30;;;8.30;99.90;;;;;;4951410;28;20245;-71
2021/12/24 08:36:12;;;;;;;9.70;3.08;;;8.20;99.90;;;;;;4950562;29;20460;-70
2021/12/24 08:38:39;;;;;;;8.32;3.20;;;8.30;99.90;;;;;;4949706;29;20031;-70
2021/12/24 08:41:05;;;;;;;8.98;3.30;;;8.20;99.90;;;;;;4949509;29;20050;-70
2021/12/24 08:43:31;;;;;;;9.15;3.60;;;8.30;99.90;;;;;;4951079;29;20121;-71
2021/12/24 08:45:57;;;;;;;6.57;3.17;;;8.20;99.90;;;;;;4951343;29;20059;-71
2021/12/24 08:48:22;;;;;;;11.75;3.65;;;8.30;99.90;;;;;;4950635;28;20043;-71
2021/12/24 08:50:48;;;;;;;8.93;3.35;;;8.30;99.90;;;;;;4951210;29;20354;-71
2021/12/24 08:53:15;;;;;;;8.50;3.10;;;8.30;99.90;;;;;;4950365;29;20031;-71
2021/12/24 08:55:41;;;;;;;6.50;3.17;;;8.30;99.90;;;;;;4951016;29;20034;-71
2021/12/24 08:58:07;;;;;;;6.35;2.80;;;8.20;99.90;;;;;;4950371;29;20031;-71
2021/12/24 09:00:34;;;;;;;10.52;3.53;;;8.20;99.90;;;;;;4949727;29;20032;-71
2021/12/24 09:03:02;;;;;;;6.63;3.35;;;8.20;99.90;;;;;;4952206;28;20082;-70
2021/12/24 09:05:28;;;;;;;8.07;3.28;;;8.20;99.90;;;;;;4954793;29;20032;-71
2021/12/24 09:07:54;;;;;;;6.28;3.45;;;8.20;99.90;;;;;;4954715;29;20090;-71
2021/12/24 09:10:20;;;;;;;7.63;3.10;;;8.20;99.90;;;;;;4953812;29;20106;-71
2021/12/24 09:12:46;;;;;;;6.93;3.25;;;8.30;99.90;;;;;;4953503;29;20043;-71
2021/12/24 09:15:14;;;;;;;7.18;2.95;;;8.20;99.90;;;;;;4953927;29;20038;-72
2021/12/24 09:17:44;;;;;;;6.90;3.22;;;8.30;99.90;;;;;;4954361;29;20042;-71
2021/12/24 09:20:13;;;;;;;;;;;8.30;99.90;;;;;;4954171;29;20070;-71
2021/12/24 09:22:40;;;;;;;7.93;3.10;;;8.30;99.90;;;;;;4953781;29;20014;-71
2021/12/24 09:25:07;;;;;;;5.38;2.67;;;8.30;99.90;;;;;;4953489;29;20094;-70
2021/12/24 09:27:33;;;;;;;7.80;2.95;;;8.40;99.90;;;;;;4935115;29;20452;-71
2021/12/24 09:29:59;;;;;;;6.38;2.80;;;8.40;99.90;;;;;;4948603;29;20055;-71
2021/12/24 09:32:28;;;;;;;8.57;3.25;;;8.30;99.90;;;;;;4953750;29;20046;-72
2021/12/24 09:34:54;;;;;;;6.97;2.88;;;8.30;99.90;;;;;;4953840;29;20035;-71
2021/12/24 09:37:20;;;;;;;6.47;3.00;;;8.40;99.90;;;;;;4953285;28;20054;-71
2021/12/24 09:39:46;;;;;;;7.25;3.13;;;8.30;99.90;;;;;;4954056;29;20400;-71
2021/12/24 09:42:13;;;;;;;10.27;3.05;;;8.30;99.90;;;;;;4951748;29;20126;-70
2021/12/24 09:44:38;;;;;;;7.32;3.13;;;8.30;99.90;;;;;;4952441;29;20031;-71
2021/12/24 09:47:04;;;;;;;8.93;3.47;;;8.30;99.90;;;;;;4953539;29;20035;-71
2021/12/24 09:49:31;;;;;;;7.78;3.08;;;8.30;99.90;;;;;;4953784;29;20261;-71
2021/12/24 09:51:57;;;;;;;6.72;3.17;;;8.30;99.90;;;;;;4954007;29;20034;-71
2021/12/24 09:54:24;;;;;;;6.55;3.25;;;8.30;99.90;;;;;;4953095;29;20027;-71
2021/12/24 09:56:53;;;;;;;6.85;3.15;;;8.30;99.90;;;;;;4953581;29;20400;-71
2021/12/24 09:59:19;;;;;;;7.90;2.83;;;8.30;99.90;;;;;;4953320;29;20035;-70
2021/12/24 10:01:59;;;;;;;5.65;2.80;;;8.30;99.90;;;;;;4953829;29;20055;-70
2021/12/24 10:04:28;;;;;;;8.50;3.05;;;8.30;99.90;;;;;;4952809;29;20039;-71
2021/12/24 10:06:55;;;;;;;8.77;3.42;;;8.40;99.90;;;;;;4953492;29;20039;-70
2021/12/24 10:09:29;;;;;;;5.68;2.83;;;8.30;99.90;;;;;;4952984;29;20094;-71
2021/12/24 10:12:04;;;;;;;10.05;3.13;;;8.20;99.90;;;;;;4942078;29;20433;-70
2021/12/24 10:14:46;;;;;;;9.65;3.67;;;8.20;99.90;;;;;;4933869;29;20028;-71
2021/12/24 10:17:20;;;;;;;6.03;3.17;;;8.20;99.90;;;;;;4933501;29;20031;-70
2021/12/24 10:19:52;;;;;;;11.38;3.20;;;8.20;99.90;;;;;;4949336;29;20485;-71
2021/12/24 10:22:19;;;;;;;6.20;3.47;;;8.10;99.90;;;;;;4967052;28;20058;-71
2021/12/24 10:25:10;;;;;;;11.35;3.42;;;8.10;99.90;;;;;;4953277;29;20511;-71
2021/12/24 10:27:38;;;;;;;11.38;3.55;;;8.10;99.90;;;;;;4953797;29;20407;-70
2021/12/24 10:30:17;;;;;;;8.95;3.67;;;8.10;99.90;;;;;;4953280;29;20038;-71
2021/12/24 10:32:42;;;;;;;10.00;3.78;;;8.10;99.90;;;;;;4952908;29;20118;-70
2021/12/24 10:35:25;;;;;;;8.35;3.60;;;8.10;99.90;;;;;;4952378;29;20166;-71
2021/12/24 10:38:17;;;;;;;7.20;3.45;;;8.00;99.90;;;;;;4953204;28;20035;-71
2021/12/24 10:40:49;;;;;;;9.85;3.75;;;8.00;99.90;;;;;;4953005;29;20034;-71
2021/12/24 10:43:36;;;;;;;9.27;3.97;;;8.00;99.90;;;;;;4952043;29;20067;-71
2021/12/24 10:46:28;;;;;;;11.07;3.88;;;7.90;99.90;;;;;;4953010;29;20028;-71
2021/12/24 10:49:04;;;;;;;10.00;4.65;;;8.00;99.90;;;;;;4951097;29;20408;-71
2021/12/24 10:54:28;;;;;;;8.18;3.60;;;7.90;99.90;;;;;;4950141;29;20044;-71
2021/12/24 10:57:15;;;;;;;11.68;4.00;;;7.90;99.90;;;;;;4952606;29;20098;-71
2021/12/24 10:59:48;;;;;;;10.60;4.47;;;7.90;99.90;;;;;;4952854;29;20035;-71
2021/12/24 11:02:14;;;;;;;9.23;4.65;;;7.90;99.90;;;;;;4951758;29;20476;-71
2021/12/24 11:04:39;;;;;;;10.77;4.60;;;7.90;99.90;;;;;;4952491;29;20107;-72
2021/12/24 11:07:38;;;;;;;12.55;4.28;;;7.80;99.90;;;;;;4952692;29;20043;-71
2021/12/24 11:10:22;;;;;;;11.57;3.83;;;7.70;99.90;;;;;;4947575;29;20047;-72
2021/12/24 11:12:53;;;;;;;10.38;4.97;;;7.70;99.90;;;;;;4952340;29;20062;-71
2021/12/24 11:15:31;;;;;;;10.70;4.45;;;7.70;99.90;;;;;;4951629;29;20023;-71
2021/12/24 11:18:03;;;;;;;11.50;4.65;;;7.70;99.90;;;;;;4952103;29;20069;-71
2021/12/24 11:20:30;;;;;;;11.20;4.43;;;7.70;99.90;;;;;;4951457;29;20499;-71
2021/12/24 11:23:08;;;;;;;11.40;5.50;;;7.70;99.90;;;;;;4951726;29;20059;-71
2021/12/24 11:25:37;;;;;;;9.60;4.70;;;7.60;99.90;;;;;;4951108;28;20206;-71
2021/12/24 11:28:04;;;;;;;11.93;4.85;;;7.70;99.90;;;;;;4948634;29;20473;-71
2021/12/24 11:30:32;;;;;;;10.32;4.72;;;7.60;99.90;;;;;;4951683;29;20637;-72
2021/12/24 11:32:58;;;;;;;10.00;4.22;;;7.60;99.90;;;;;;4952107;28;20443;-71
2021/12/24 11:35:25;;;;;;;10.20;4.63;;;7.60;99.90;;;;;;4951324;29;20384;-71
2021/12/24 11:37:53;;;;;;;10.02;4.38;;;7.70;99.90;;;;;;4950686;29;20112;-71
2021/12/24 11:40:23;;;;;;;11.57;4.07;;;7.60;99.90;;;;;;4951300;29;20050;-71
2021/12/24 11:42:54;;;;;;;10.70;4.38;;;7.60;99.90;;;;;;4951702;29;20039;-71
2021/12/24 11:45:23;;;;;;;11.50;4.70;;;7.60;99.90;;;;;;4965427;28;20563;-71
2021/12/24 11:47:50;;;;;;;8.82;3.78;;;7.60;99.90;;;;;;4951477;29;20038;-70
2021/12/24 11:50:16;;;;;;;8.70;4.25;;;7.60;99.90;;;;;;4949697;29;20118;-70
2021/12/24 11:52:45;;;;;;;10.25;3.88;;;7.50;99.90;;;;;;4951754;28;20079;-71
2021/12/24 11:55:11;;;;;;;9.70;4.03;;;7.50;99.90;;;;;;4951550;28;20035;-70
2021/12/24 11:57:51;;;;;;;9.48;4.53;;;7.60;99.90;;;;;;4951346;29;20435;-71
2021/12/24 12:00:27;;;;;;;10.30;4.55;;;7.60;99.90;;;;;;4950817;29;20035;-71
2021/12/24 12:02:53;;;;;;;10.27;3.97;;;7.60;99.90;;;;;;4951490;29;20043;-71
2021/12/24 12:05:23;;;;;;;9.57;4.53;;;7.60;99.90;;;;;;4950883;29;20032;-71
2021/12/24 12:07:50;;;;;;;9.55;4.60;;;7.60;99.90;;;;;;4951551;29;20032;-71
2021/12/24 12:10:51;;;;;;;8.55;4.10;;;7.60;99.90;;;;;;4940006;29;20491;-71
2021/12/24 12:13:36;;;;;;;10.30;4.25;;;7.60;99.90;;;;;;4946548;29;20081;-71
2021/12/24 12:16:04;;;;;;;11.85;4.35;;;7.60;99.90;;;;;;4959507;28;20045;-69
2021/12/24 12:18:33;;;;;;;7.80;4.03;;;7.60;99.90;;;;;;4948710;29;20031;-72
2021/12/24 12:21:13;;;;;;;9.32;4.20;;;7.60;99.90;;;;;;4951277;29;20038;-74
2021/12/24 12:24:57;;;;;;;9.93;5.20;;;7.60;99.90;;;;;;4951004;29;20147;-73
2021/12/24 12:26:49;;;;;;;10.57;4.45;;;7.50;99.90;;;;;;4949949;29;20053;-70
2021/12/24 12:29:44;;;;;;;7.93;3.67;;;7.60;99.90;;;;;;4950996;29;20034;-70
2021/12/24 12:32:13;;;;;;;7.45;3.90;;;7.60;99.90;;;;;;4951410;29;20186;-69
2021/12/24 12:34:38;;;;;;;15.63;4.88;;;7.60;99.90;;;;;;4950847;29;20023;-69
2021/12/24 12:37:23;;;;;;;8.85;4.10;;;7.60;99.90;;;;;;4951840;28;20519;-69
2021/12/24 12:39:56;;;;;;;8.88;4.45;;;7.60;99.90;;;;;;4954978;29;20097;-70
2021/12/24 12:42:24;;;;;;;8.02;3.88;;;7.60;99.90;;;;;;4951596;29;20066;-70
2021/12/24 12:44:53;;;;;;;9.00;4.18;;;7.60;99.90;;;;;;4954336;29;20047;-69
2021/12/24 12:47:22;;;;;;;8.65;4.05;;;7.60;99.90;;;;;;4953562;29;20416;-70
2021/12/24 12:49:51;;;;;;;7.88;3.90;;;7.70;99.90;;;;;;4954914;29;20032;-70
2021/12/24 12:52:20;;;;;;;9.07;3.53;;;7.60;99.90;;;;;;4953856;29;20054;-70
2021/12/24 12:54:55;;;;;;;7.28;3.33;;;7.70;99.90;;;;;;4949758;29;20837;-69
2021/12/24 12:57:27;;;;;;;9.07;3.70;;;7.60;99.90;;;;;;4952012;29;20035;-70
2021/12/24 13:00:18;;;;;;;10.43;4.00;;;7.70;99.90;;;;;;4936073;29;20102;-70
2021/12/24 13:02:56;;;;;;;10.13;3.63;;;7.70;99.90;;;;;;4943640;29;20040;-70
2021/12/24 13:05:24;;;;;;;8.80;3.42;;;7.70;99.90;;;;;;4953592;29;20027;-70
2021/12/24 13:07:49;;;;;;;6.43;3.35;;;7.70;99.90;;;;;;4948765;29;20034;-70
2021/12/24 13:10:20;;;;;;;6.38;3.42;;;7.60;99.90;;;;;;4948932;29;20035;-71
2021/12/24 13:12:46;;;;;;;6.63;2.97;;;7.70;99.90;;;;;;4946548;29;20038;-70
2021/12/24 13:15:16;;;;;;;8.45;3.38;;;7.70;99.90;;;;;;4954762;28;20063;-70
2021/12/24 13:17:46;;;;;;;6.72;3.08;;;7.70;99.90;;;;;;4953149;29;20027;-70
2021/12/24 13:20:18;;;;;;;5.82;2.83;;;7.80;99.90;;;;;;4950536;28;20024;-70
2021/12/24 13:22:44;;;;;;;6.55;3.20;;;7.80;99.90;;;;;;4953601;28;20082;-69
2021/12/24 13:25:14;;;;;;;6.82;3.10;;;7.80;99.90;;;;;;4954124;29;20047;-69
2021/12/24 13:27:42;;;;;;;8.97;3.50;;;7.80;99.90;;;;;;4953494;29;20037;-70
2021/12/24 13:30:16;;;;;;;9.07;3.35;;;7.80;99.90;;;;;;4953869;29;20032;-70
2021/12/24 13:32:48;;;;;;;5.68;2.70;;;7.80;99.90;;;;;;4953229;29;20055;-70
2021/12/24 13:35:16;;;;;;;6.47;3.20;;;7.80;99.90;;;;;;4953748;29;20027;-70
2021/12/24 13:37:46;;;;;;;7.28;2.95;;;7.80;99.90;;;;;;4952445;29;20035;-70
2021/12/24 13:40:14;;;;;;;9.70;3.38;;;7.80;99.90;;;;;;4952555;28;20400;-70
2021/12/24 13:43:06;;;;;;;6.63;2.65;;;7.80;99.90;;;;;;4953175;29;20714;-70
2021/12/24 13:45:36;;;;;;;8.68;3.08;;;7.70;99.90;;;;;;4953143;29;20039;-70
2021/12/24 13:48:09;;;;;;;8.40;3.65;;;7.80;99.90;;;;;;4952367;28;20039;-70
2021/12/24 13:56:14;;;;;;;7.30;3.95;;;7.60;99.90;;;;;;4953698;29;20495;-70
2021/12/24 13:58:40;;;;;;;8.77;4.18;;;7.60;99.90;;;;;;4952377;29;20023;-70
2021/12/24 14:01:06;;;;;;;11.20;3.92;;;7.60;99.90;;;;;;4953434;29;20046;-70
2021/12/24 14:03:34;;;;;;;6.65;3.58;;;7.60;99.90;;;;;;4952574;29;20118;-70
2021/12/24 14:06:02;;;;;;;8.52;4.00;;;7.70;99.90;;;;;;4953642;29;20578;-70
2021/12/24 14:08:30;;;;;;;8.57;4.40;;;7.70;99.90;;;;;;4946129;29;20154;-70
2021/12/24 14:11:23;;;;;;;7.72;3.70;;;7.70;99.90;;;;;;4951365;29;20157;-70
2021/12/24 14:13:57;;;;;;;10.23;3.83;;;7.70;99.90;;;;;;4948829;29;20086;-70
2021/12/24 14:16:57;;;;;;;7.60;4.15;;;7.70;99.90;;;;;;4953092;29;20031;-70
2021/12/24 14:19:42;;;;;;;9.30;3.38;;;7.60;99.90;;;;;;4949206;29;20027;-70
2021/12/24 14:22:13;;;;;;;8.32;3.50;;;7.70;99.90;;;;;;4949080;29;20098;-70
2021/12/24 14:25:17;;;;;;;;;;;7.70;99.90;;;;;;4951303;29;20042;-70
2021/12/24 14:27:49;;;;;;;6.82;2.90;;;7.70;99.90;;;;;;4891463;29;19996;-70
2021/12/24 14:30:22;;;;;;;8.57;3.22;;;7.80;99.90;;;;;;4897404;29;20624;-70
2021/12/24 14:32:50;;;;;;;8.35;3.45;;;7.80;99.90;;;;;;4925124;29;20061;-70
2021/12/24 14:35:17;;;;;;;9.05;3.40;;;7.80;99.90;;;;;;4953118;28;20039;-70
2021/12/24 14:38:06;;;;;;;6.90;3.20;;;7.80;99.90;;;;;;4952250;28;20476;-70
2021/12/24 14:40:33;;;;;;;7.05;3.15;;;7.80;99.90;;;;;;4951234;29;20095;-70
2021/12/24 14:43:00;;;;;;;6.30;3.28;;;7.90;99.90;;;;;;4953125;29;20065;-70
2021/12/24 14:45:27;;;;;;;9.20;3.58;;;7.90;99.90;;;;;;4952355;29;20094;-71
2021/12/24 14:48:17;;;;;;;10.57;4.35;;;7.90;99.90;;;;;;4952942;29;20042;-70
2021/12/24 14:51:03;;;;;;;6.50;3.28;;;7.90;99.90;;;;;;4949885;29;20027;-70
2021/12/24 14:53:30;;;;;;;8.63;3.53;;;7.90;99.90;;;;;;4952269;29;20051;-70
2021/12/24 14:56:05;;;;;;;5.70;2.42;;;7.90;99.90;;;;;;4953004;29;20069;-70